sensor_id;sensor_type;location;lat;lon;timestamp;P1;durP1;ratioP1;P2;durP2;ratioP2
1885;SDS011;943;51.568;6.998;2022-08-26T00:00:04;10.60;;;8.80;;
1885;SDS011;943;51.568;6.998;2022-08-26T00:02:37;10.00;;;8.47;;
1885;SDS011;943;51.568;6.998;2022-08-26T00:05:05;11.27;;;8.33;;
1885;SDS011;943;51.568;6.998;2022-08-26T00:07:33;10.37;;;9.30;;
1885;SDS011;943;51.568;6.998;2022-08-26T00:10:03;10.43;;;9.13;;
1885;SDS011;943;51.568;6.998;2022-08-26T00:12:33;10.93;;;8.97;;
1885;SDS011;943;51.568;6.998;2022-08-26T00:15:04;12.93;;;9.67;;
1885;SDS011;943;51.568;6.998;2022-08-26T00:17:38;12.53;;;10.37;;
1885;SDS011;943;51.568;6.998;2022-08-26T00:20:08;12.77;;;10.93;;
1885;SDS011;943;51.568;6.998;2022-08-26T00:22:48;13.27;;;10.20;;
1885;SDS011;943;51.568;6.998;2022-08-26T00:25:16;14.97;;;9.97;;
1885;SDS011;943;51.568;6.998;2022-08-26T00:27:45;11.37;;;9.70;;
1885;SDS011;943;51.568;6.998;2022-08-26T00:30:21;15.90;;;10.20;;
1885;SDS011;943;51.568;6.998;2022-08-26T00:32:56;9.80;;;8.30;;
1885;SDS011;943;51.568;6.998;2022-08-26T00:35:25;12.20;;;9.37;;
1885;SDS011;943;51.568;6.998;2022-08-26T00:37:58;10.70;;;9.60;;
1885;SDS011;943;51.568;6.998;2022-08-26T00:40:31;9.63;;;8.63;;
1885;SDS011;943;51.568;6.998;2022-08-26T00:43:11;13.43;;;10.00;;
1885;SDS011;943;51.568;6.998;2022-08-26T00:45:48;14.90;;;10.20;;
1885;SDS011;943;51.568;6.998;2022-08-26T00:48:40;11.87;;;9.40;;
1885;SDS011;943;51.568;6.998;2022-08-26T00:51:16;11.53;;;9.77;;
1885;SDS011;943;51.568;6.998;2022-08-26T00:54:03;12.07;;;10.70;;
1885;SDS011;943;51.568;6.998;2022-08-26T00:56:38;14.60;;;9.70;;
1885;SDS011;943;51.568;6.998;2022-08-26T00:59:42;11.53;;;10.33;;
1885;SDS011;943;51.568;6.998;2022-08-26T01:02:22;13.63;;;10.93;;
1885;SDS011;943;51.568;6.998;2022-08-26T01:04:51;11.87;;;10.40;;
1885;SDS011;943;51.568;6.998;2022-08-26T01:07:29;13.93;;;11.97;;
1885;SDS011;943;51.568;6.998;2022-08-26T01:10:00;14.43;;;11.87;;
1885;SDS011;943;51.568;6.998;2022-08-26T01:12:42;14.10;;;12.33;;
1885;SDS011;943;51.568;6.998;2022-08-26T01:15:24;18.67;;;13.60;;
1885;SDS011;943;51.568;6.998;2022-08-26T01:18:03;17.07;;;15.07;;
1885;SDS011;943;51.568;6.998;2022-08-26T01:23:55;20.83;;;15.43;;
1885;SDS011;943;51.568;6.998;2022-08-26T01:26:29;21.50;;;16.13;;
1885;SDS011;943;51.568;6.998;2022-08-26T01:29:07;18.03;;;15.43;;
1885;SDS011;943;51.568;6.998;2022-08-26T01:31:47;19.43;;;17.53;;
1885;SDS011;943;51.568;6.998;2022-08-26T01:34:22;21.50;;;18.73;;
1885;SDS011;943;51.568;6.998;2022-08-26T01:37:07;22.13;;;18.97;;
1885;SDS011;943;51.568;6.998;2022-08-26T01:39:48;21.30;;;18.73;;
1885;SDS011;943;51.568;6.998;2022-08-26T01:42:23;28.43;;;25.30;;
1885;SDS011;943;51.568;6.998;2022-08-26T01:44:58;30.20;;;26.20;;
1885;SDS011;943;51.568;6.998;2022-08-26T01:47:45;33.97;;;28.53;;
1885;SDS011;943;51.568;6.998;2022-08-26T01:50:26;35.97;;;32.13;;
1885;SDS011;943;51.568;6.998;2022-08-26T01:53:02;34.40;;;30.90;;
1885;SDS011;943;51.568;6.998;2022-08-26T01:55:38;38.93;;;34.83;;
1885;SDS011;943;51.568;6.998;2022-08-26T01:58:17;37.80;;;33.93;;
1885;SDS011;943;51.568;6.998;2022-08-26T02:01:17;44.50;;;39.70;;
1885;SDS011;943;51.568;6.998;2022-08-26T02:07:04;48.60;;;43.47;;
1885;SDS011;943;51.568;6.998;2022-08-26T02:09:39;53.33;;;47.50;;
1885;SDS011;943;51.568;6.998;2022-08-26T02:12:08;52.97;;;47.60;;
1885;SDS011;943;51.568;6.998;2022-08-26T02:14:43;55.93;;;49.47;;
1885;SDS011;943;51.568;6.998;2022-08-26T02:17:21;56.50;;;50.50;;
1885;SDS011;943;51.568;6.998;2022-08-26T02:20:04;60.63;;;54.50;;
1885;SDS011;943;51.568;6.998;2022-08-26T02:22:40;62.90;;;54.43;;
1885;SDS011;943;51.568;6.998;2022-08-26T02:25:12;57.20;;;51.20;;
1885;SDS011;943;51.568;6.998;2022-08-26T02:28:20;63.97;;;53.50;;
1885;SDS011;943;51.568;6.998;2022-08-26T02:30:52;62.83;;;56.03;;
1885;SDS011;943;51.568;6.998;2022-08-26T02:33:21;67.40;;;59.87;;
1885;SDS011;943;51.568;6.998;2022-08-26T02:35:49;69.50;;;59.50;;
1885;SDS011;943;51.568;6.998;2022-08-26T02:38:17;67.40;;;60.20;;
1885;SDS011;943;51.568;6.998;2022-08-26T02:40:45;69.20;;;60.40;;
1885;SDS011;943;51.568;6.998;2022-08-26T02:43:16;70.17;;;61.87;;
1885;SDS011;943;51.568;6.998;2022-08-26T02:45:56;71.90;;;63.80;;
1885;SDS011;943;51.568;6.998;2022-08-26T02:48:27;69.10;;;61.50;;
1885;SDS011;943;51.568;6.998;2022-08-26T02:50:57;72.60;;;64.70;;
1885;SDS011;943;51.568;6.998;2022-08-26T02:53:27;74.73;;;66.63;;
1885;SDS011;943;51.568;6.998;2022-08-26T02:55:57;78.07;;;69.67;;
1885;SDS011;943;51.568;6.998;2022-08-26T02:58:28;74.17;;;66.03;;
1885;SDS011;943;51.568;6.998;2022-08-26T03:00:57;79.30;;;66.60;;
1885;SDS011;943;51.568;6.998;2022-08-26T03:03:26;77.40;;;67.37;;
1885;SDS011;943;51.568;6.998;2022-08-26T03:05:56;84.80;;;75.37;;
1885;SDS011;943;51.568;6.998;2022-08-26T03:08:24;72.63;;;64.93;;
1885;SDS011;943;51.568;6.998;2022-08-26T03:10:52;72.87;;;65.00;;
1885;SDS011;943;51.568;6.998;2022-08-26T03:13:20;80.40;;;71.30;;
1885;SDS011;943;51.568;6.998;2022-08-26T03:15:47;81.27;;;70.17;;
1885;SDS011;943;51.568;6.998;2022-08-26T03:18:15;77.83;;;68.87;;
1885;SDS011;943;51.568;6.998;2022-08-26T03:20:45;73.33;;;65.30;;
1885;SDS011;943;51.568;6.998;2022-08-26T03:23:13;72.10;;;62.77;;
1885;SDS011;943;51.568;6.998;2022-08-26T03:25:47;70.57;;;62.70;;
1885;SDS011;943;51.568;6.998;2022-08-26T03:28:19;71.17;;;61.80;;
1885;SDS011;943;51.568;6.998;2022-08-26T03:30:46;73.17;;;63.30;;
1885;SDS011;943;51.568;6.998;2022-08-26T03:33:15;72.50;;;64.60;;
1885;SDS011;943;51.568;6.998;2022-08-26T03:35:43;78.63;;;66.20;;
1885;SDS011;943;51.568;6.998;2022-08-26T03:38:16;73.60;;;64.70;;
1885;SDS011;943;51.568;6.998;2022-08-26T03:40:52;75.23;;;66.57;;
1885;SDS011;943;51.568;6.998;2022-08-26T03:43:20;78.93;;;66.93;;
1885;SDS011;943;51.568;6.998;2022-08-26T03:45:51;77.07;;;68.60;;
1885;SDS011;943;51.568;6.998;2022-08-26T03:48:19;79.50;;;69.60;;
1885;SDS011;943;51.568;6.998;2022-08-26T03:50:47;83.87;;;69.87;;
1885;SDS011;943;51.568;6.998;2022-08-26T03:53:16;81.87;;;70.27;;
1885;SDS011;943;51.568;6.998;2022-08-26T03:55:46;76.43;;;67.73;;
1885;SDS011;943;51.568;6.998;2022-08-26T03:58:17;79.07;;;69.60;;
1885;SDS011;943;51.568;6.998;2022-08-26T04:00:47;77.20;;;67.17;;
1885;SDS011;943;51.568;6.998;2022-08-26T04:03:20;85.57;;;68.33;;
1885;SDS011;943;51.568;6.998;2022-08-26T04:06:09;73.37;;;61.60;;
1885;SDS011;943;51.568;6.998;2022-08-26T04:08:38;77.07;;;63.67;;
1885;SDS011;943;51.568;6.998;2022-08-26T04:11:06;83.03;;;68.83;;
1885;SDS011;943;51.568;6.998;2022-08-26T04:13:35;77.87;;;65.43;;
1885;SDS011;943;51.568;6.998;2022-08-26T04:16:03;75.30;;;62.93;;
1885;SDS011;943;51.568;6.998;2022-08-26T04:18:31;75.87;;;63.53;;
1885;SDS011;943;51.568;6.998;2022-08-26T04:21:06;74.60;;;63.97;;
1885;SDS011;943;51.568;6.998;2022-08-26T04:23:38;70.43;;;59.87;;
1885;SDS011;943;51.568;6.998;2022-08-26T04:26:13;70.10;;;59.07;;
1885;SDS011;943;51.568;6.998;2022-08-26T04:28:45;74.57;;;61.60;;
1885;SDS011;943;51.568;6.998;2022-08-26T04:31:17;69.13;;;60.10;;
1885;SDS011;943;51.568;6.998;2022-08-26T04:33:46;68.37;;;59.50;;
1885;SDS011;943;51.568;6.998;2022-08-26T04:36:16;70.93;;;60.33;;
1885;SDS011;943;51.568;6.998;2022-08-26T04:38:45;75.83;;;60.90;;
1885;SDS011;943;51.568;6.998;2022-08-26T04:41:13;74.40;;;59.00;;
1885;SDS011;943;51.568;6.998;2022-08-26T04:43:43;68.03;;;56.37;;
1885;SDS011;943;51.568;6.998;2022-08-26T04:46:15;63.97;;;55.93;;
1885;SDS011;943;51.568;6.998;2022-08-26T04:48:50;67.13;;;52.87;;
1885;SDS011;943;51.568;6.998;2022-08-26T04:51:20;61.80;;;50.70;;
1885;SDS011;943;51.568;6.998;2022-08-26T04:53:54;61.33;;;51.70;;
1885;SDS011;943;51.568;6.998;2022-08-26T04:56:25;63.97;;;54.50;;
1885;SDS011;943;51.568;6.998;2022-08-26T04:58:59;63.40;;;52.17;;
1885;SDS011;943;51.568;6.998;2022-08-26T05:01:32;58.73;;;50.97;;
1885;SDS011;943;51.568;6.998;2022-08-26T05:04:04;58.77;;;51.23;;
1885;SDS011;943;51.568;6.998;2022-08-26T05:06:33;57.37;;;50.37;;
1885;SDS011;943;51.568;6.998;2022-08-26T05:09:02;56.13;;;49.63;;
1885;SDS011;943;51.568;6.998;2022-08-26T05:11:31;57.00;;;50.30;;
1885;SDS011;943;51.568;6.998;2022-08-26T05:13:59;54.40;;;48.53;;
1885;SDS011;943;51.568;6.998;2022-08-26T05:16:27;58.37;;;49.37;;
1885;SDS011;943;51.568;6.998;2022-08-26T05:18:55;54.07;;;46.53;;
1885;SDS011;943;51.568;6.998;2022-08-26T05:21:24;54.83;;;46.20;;
1885;SDS011;943;51.568;6.998;2022-08-26T05:23:54;59.27;;;45.80;;
1885;SDS011;943;51.568;6.998;2022-08-26T05:26:25;57.10;;;46.00;;
1885;SDS011;943;51.568;6.998;2022-08-26T05:28:56;54.73;;;48.87;;
1885;SDS011;943;51.568;6.998;2022-08-26T05:31:26;55.23;;;46.30;;
1885;SDS011;943;51.568;6.998;2022-08-26T05:33:59;56.77;;;47.23;;
1885;SDS011;943;51.568;6.998;2022-08-26T05:36:30;59.47;;;46.00;;
1885;SDS011;943;51.568;6.998;2022-08-26T05:39:03;53.43;;;45.77;;
1885;SDS011;943;51.568;6.998;2022-08-26T05:41:36;50.27;;;44.63;;
1885;SDS011;943;51.568;6.998;2022-08-26T05:44:08;53.60;;;44.53;;
1885;SDS011;943;51.568;6.998;2022-08-26T05:46:42;48.17;;;42.50;;
1885;SDS011;943;51.568;6.998;2022-08-26T05:49:12;43.87;;;38.80;;
1885;SDS011;943;51.568;6.998;2022-08-26T05:51:44;47.87;;;41.40;;
1885;SDS011;943;51.568;6.998;2022-08-26T05:54:13;53.80;;;42.33;;
1885;SDS011;943;51.568;6.998;2022-08-26T05:56:48;47.60;;;42.30;;
1885;SDS011;943;51.568;6.998;2022-08-26T05:59:22;52.00;;;42.90;;
1885;SDS011;943;51.568;6.998;2022-08-26T06:01:52;52.43;;;42.63;;
1885;SDS011;943;51.568;6.998;2022-08-26T06:04:22;50.37;;;41.30;;
1885;SDS011;943;51.568;6.998;2022-08-26T06:06:54;44.37;;;39.50;;
1885;SDS011;943;51.568;6.998;2022-08-26T06:09:22;43.40;;;38.40;;
1885;SDS011;943;51.568;6.998;2022-08-26T06:11:49;45.60;;;38.57;;
1885;SDS011;943;51.568;6.998;2022-08-26T06:14:18;45.77;;;37.13;;
1885;SDS011;943;51.568;6.998;2022-08-26T06:16:46;45.50;;;37.70;;
1885;SDS011;943;51.568;6.998;2022-08-26T06:19:15;49.63;;;36.93;;
1885;SDS011;943;51.568;6.998;2022-08-26T06:21:44;43.23;;;35.37;;
1885;SDS011;943;51.568;6.998;2022-08-26T06:24:19;39.23;;;35.00;;
1885;SDS011;943;51.568;6.998;2022-08-26T06:27:06;41.30;;;36.50;;
1885;SDS011;943;51.568;6.998;2022-08-26T06:29:42;36.17;;;32.27;;
1885;SDS011;943;51.568;6.998;2022-08-26T06:32:09;37.13;;;32.67;;
1885;SDS011;943;51.568;6.998;2022-08-26T06:34:37;38.90;;;32.50;;
1885;SDS011;943;51.568;6.998;2022-08-26T06:37:09;39.73;;;33.10;;
1885;SDS011;943;51.568;6.998;2022-08-26T06:39:37;34.97;;;31.20;;
1885;SDS011;943;51.568;6.998;2022-08-26T06:42:06;38.40;;;32.00;;
1885;SDS011;943;51.568;6.998;2022-08-26T06:44:37;32.63;;;29.33;;
1885;SDS011;943;51.568;6.998;2022-08-26T06:47:06;32.30;;;28.87;;
1885;SDS011;943;51.568;6.998;2022-08-26T06:49:33;35.93;;;31.73;;
1885;SDS011;943;51.568;6.998;2022-08-26T06:52:02;33.17;;;29.27;;
1885;SDS011;943;51.568;6.998;2022-08-26T06:54:30;33.97;;;29.67;;
1885;SDS011;943;51.568;6.998;2022-08-26T06:56:57;36.43;;;31.13;;
1885;SDS011;943;51.568;6.998;2022-08-26T06:59:26;40.57;;;32.47;;
1885;SDS011;943;51.568;6.998;2022-08-26T07:01:54;33.17;;;28.30;;
1885;SDS011;943;51.568;6.998;2022-08-26T07:04:22;37.03;;;28.97;;
1885;SDS011;943;51.568;6.998;2022-08-26T07:06:53;32.77;;;29.47;;
1885;SDS011;943;51.568;6.998;2022-08-26T07:09:23;33.80;;;28.13;;
1885;SDS011;943;51.568;6.998;2022-08-26T07:11:58;35.17;;;29.40;;
1885;SDS011;943;51.568;6.998;2022-08-26T07:14:25;34.50;;;27.47;;
1885;SDS011;943;51.568;6.998;2022-08-26T07:16:53;31.80;;;28.40;;
1885;SDS011;943;51.568;6.998;2022-08-26T07:19:21;36.50;;;29.23;;
1885;SDS011;943;51.568;6.998;2022-08-26T07:22:00;34.10;;;28.60;;
1885;SDS011;943;51.568;6.998;2022-08-26T07:24:35;32.20;;;27.63;;
1885;SDS011;943;51.568;6.998;2022-08-26T07:27:10;32.90;;;28.77;;
1885;SDS011;943;51.568;6.998;2022-08-26T07:29:42;30.23;;;27.10;;
1885;SDS011;943;51.568;6.998;2022-08-26T07:32:11;29.93;;;24.70;;
1885;SDS011;943;51.568;6.998;2022-08-26T07:34:45;31.43;;;28.07;;
1885;SDS011;943;51.568;6.998;2022-08-26T07:37:14;33.00;;;25.60;;
1885;SDS011;943;51.568;6.998;2022-08-26T07:39:43;29.47;;;25.93;;
1885;SDS011;943;51.568;6.998;2022-08-26T07:42:12;29.57;;;26.57;;
1885;SDS011;943;51.568;6.998;2022-08-26T07:44:43;27.73;;;24.17;;
1885;SDS011;943;51.568;6.998;2022-08-26T07:47:12;25.80;;;23.13;;
1885;SDS011;943;51.568;6.998;2022-08-26T07:49:51;29.03;;;25.50;;
1885;SDS011;943;51.568;6.998;2022-08-26T07:52:24;29.47;;;26.47;;
1885;SDS011;943;51.568;6.998;2022-08-26T07:54:56;29.27;;;25.50;;
1885;SDS011;943;51.568;6.998;2022-08-26T07:57:28;29.33;;;26.13;;
1885;SDS011;943;51.568;6.998;2022-08-26T07:59:56;29.00;;;25.80;;
1885;SDS011;943;51.568;6.998;2022-08-26T08:02:25;25.60;;;22.83;;
1885;SDS011;943;51.568;6.998;2022-08-26T08:04:55;29.50;;;23.60;;
1885;SDS011;943;51.568;6.998;2022-08-26T08:07:24;24.50;;;21.90;;
1885;SDS011;943;51.568;6.998;2022-08-26T08:10:15;26.90;;;24.00;;
1885;SDS011;943;51.568;6.998;2022-08-26T08:12:51;26.53;;;23.30;;
1885;SDS011;943;51.568;6.998;2022-08-26T08:15:22;27.67;;;24.73;;
1885;SDS011;943;51.568;6.998;2022-08-26T08:17:54;30.40;;;25.43;;
1885;SDS011;943;51.568;6.998;2022-08-26T08:20:26;27.27;;;24.37;;
1885;SDS011;943;51.568;6.998;2022-08-26T08:22:56;25.93;;;22.90;;
1885;SDS011;943;51.568;6.998;2022-08-26T08:25:24;30.50;;;24.40;;
1885;SDS011;943;51.568;6.998;2022-08-26T08:27:52;30.60;;;23.13;;
1885;SDS011;943;51.568;6.998;2022-08-26T08:30:22;30.97;;;24.77;;
1885;SDS011;943;51.568;6.998;2022-08-26T08:32:50;26.73;;;22.27;;
1885;SDS011;943;51.568;6.998;2022-08-26T08:35:19;31.43;;;21.23;;
1885;SDS011;943;51.568;6.998;2022-08-26T08:37:49;29.80;;;22.47;;
1885;SDS011;943;51.568;6.998;2022-08-26T08:40:20;26.17;;;22.10;;
1885;SDS011;943;51.568;6.998;2022-08-26T08:43:02;23.63;;;20.67;;
1885;SDS011;943;51.568;6.998;2022-08-26T08:45:48;23.77;;;21.27;;
1885;SDS011;943;51.568;6.998;2022-08-26T08:48:30;25.13;;;18.87;;
1885;SDS011;943;51.568;6.998;2022-08-26T08:54:29;21.20;;;19.10;;
1885;SDS011;943;51.568;6.998;2022-08-26T08:57:08;19.43;;;17.43;;
1885;SDS011;943;51.568;6.998;2022-08-26T08:59:56;21.47;;;17.20;;
1885;SDS011;943;51.568;6.998;2022-08-26T09:03:18;28.80;;;16.43;;
1885;SDS011;943;51.568;6.998;2022-08-26T09:06:02;20.83;;;15.50;;
1885;SDS011;943;51.568;6.998;2022-08-26T09:08:43;18.10;;;14.80;;
1885;SDS011;943;51.568;6.998;2022-08-26T09:11:17;22.80;;;13.70;;
1885;SDS011;943;51.568;6.998;2022-08-26T09:13:48;20.20;;;15.20;;
1885;SDS011;943;51.568;6.998;2022-08-26T09:16:36;18.27;;;13.67;;
1885;SDS011;943;51.568;6.998;2022-08-26T09:19:47;15.90;;;11.87;;
1885;SDS011;943;51.568;6.998;2022-08-26T09:22:39;14.57;;;11.07;;
1885;SDS011;943;51.568;6.998;2022-08-26T09:25:10;17.20;;;13.73;;
1885;SDS011;943;51.568;6.998;2022-08-26T09:27:45;19.77;;;11.70;;
1885;SDS011;943;51.568;6.998;2022-08-26T09:30:25;15.47;;;11.10;;
1885;SDS011;943;51.568;6.998;2022-08-26T09:33:02;14.27;;;10.90;;
1885;SDS011;943;51.568;6.998;2022-08-26T09:35:37;15.20;;;10.60;;
1885;SDS011;943;51.568;6.998;2022-08-26T09:38:24;14.37;;;11.03;;
1885;SDS011;943;51.568;6.998;2022-08-26T09:41:03;16.90;;;11.50;;
1885;SDS011;943;51.568;6.998;2022-08-26T09:46:52;15.47;;;12.60;;
1885;SDS011;943;51.568;6.998;2022-08-26T09:49:36;15.43;;;13.60;;
1885;SDS011;943;51.568;6.998;2022-08-26T09:52:08;16.40;;;12.60;;
1885;SDS011;943;51.568;6.998;2022-08-26T09:55:00;21.37;;;12.80;;
1885;SDS011;943;51.568;6.998;2022-08-26T09:57:53;14.50;;;11.87;;
1885;SDS011;943;51.568;6.998;2022-08-26T10:00:29;19.33;;;13.63;;
1885;SDS011;943;51.568;6.998;2022-08-26T10:03:26;16.10;;;13.33;;
1885;SDS011;943;51.568;6.998;2022-08-26T10:06:05;16.60;;;12.20;;
1885;SDS011;943;51.568;6.998;2022-08-26T10:08:56;14.27;;;12.10;;
1885;SDS011;943;51.568;6.998;2022-08-26T10:11:47;14.83;;;11.80;;
1885;SDS011;943;51.568;6.998;2022-08-26T10:17:28;15.37;;;13.03;;
1885;SDS011;943;51.568;6.998;2022-08-26T10:20:14;15.00;;;11.23;;
1885;SDS011;943;51.568;6.998;2022-08-26T10:23:06;12.13;;;10.70;;
1885;SDS011;943;51.568;6.998;2022-08-26T10:29:17;15.10;;;10.70;;
1885;SDS011;943;51.568;6.998;2022-08-26T10:32:31;13.47;;;8.70;;
1885;SDS011;943;51.568;6.998;2022-08-26T10:35:10;17.47;;;9.77;;
1885;SDS011;943;51.568;6.998;2022-08-26T10:37:48;10.90;;;8.53;;
1885;SDS011;943;51.568;6.998;2022-08-26T10:40:28;15.83;;;9.43;;
1885;SDS011;943;51.568;6.998;2022-08-26T10:43:16;15.43;;;8.80;;
1885;SDS011;943;51.568;6.998;2022-08-26T10:46:11;11.93;;;8.63;;
1885;SDS011;943;51.568;6.998;2022-08-26T10:48:50;11.57;;;9.27;;
1885;SDS011;943;51.568;6.998;2022-08-26T10:55:31;10.47;;;9.37;;
1885;SDS011;943;51.568;6.998;2022-08-26T11:02:40;12.40;;;6.57;;
1885;SDS011;943;51.568;6.998;2022-08-26T11:05:20;15.90;;;8.50;;
1885;SDS011;943;51.568;6.998;2022-08-26T11:07:50;11.43;;;7.63;;
1885;SDS011;943;51.568;6.998;2022-08-26T11:17:52;12.83;;;8.70;;
1885;SDS011;943;51.568;6.998;2022-08-26T11:20:14;11.20;;;8.87;;
1885;SDS011;943;51.568;6.998;2022-08-26T11:28:39;15.83;;;9.40;;
1885;SDS011;943;51.568;6.998;2022-08-26T11:33:58;14.23;;;8.23;;
1885;SDS011;943;51.568;6.998;2022-08-26T11:36:41;17.50;;;8.63;;
1885;SDS011;943;51.568;6.998;2022-08-26T11:39:13;13.10;;;8.77;;
1885;SDS011;943;51.568;6.998;2022-08-26T11:42:13;12.00;;;7.80;;
1885;SDS011;943;51.568;6.998;2022-08-26T11:45:17;11.90;;;8.23;;
1885;SDS011;943;51.568;6.998;2022-08-26T11:47:57;12.07;;;9.20;;
1885;SDS011;943;51.568;6.998;2022-08-26T11:50:52;12.37;;;7.77;;
1885;SDS011;943;51.568;6.998;2022-08-26T11:53:39;9.50;;;7.93;;
1885;SDS011;943;51.568;6.998;2022-08-26T11:56:31;14.23;;;8.20;;
1885;SDS011;943;51.568;6.998;2022-08-26T11:59:07;16.10;;;8.13;;
1885;SDS011;943;51.568;6.998;2022-08-26T12:01:44;12.73;;;8.20;;
1885;SDS011;943;51.568;6.998;2022-08-26T12:04:27;9.23;;;7.60;;
1885;SDS011;943;51.568;6.998;2022-08-26T12:07:03;9.17;;;7.50;;
1885;SDS011;943;51.568;6.998;2022-08-26T12:09:35;10.93;;;7.80;;
1885;SDS011;943;51.568;6.998;2022-08-26T12:12:30;10.20;;;8.23;;
1885;SDS011;943;51.568;6.998;2022-08-26T12:15:11;11.13;;;8.10;;
1885;SDS011;943;51.568;6.998;2022-08-26T12:17:48;11.70;;;7.60;;
1885;SDS011;943;51.568;6.998;2022-08-26T12:20:33;11.00;;;7.77;;
1885;SDS011;943;51.568;6.998;2022-08-26T12:23:20;13.17;;;7.60;;
1885;SDS011;943;51.568;6.998;2022-08-26T12:26:19;13.23;;;6.90;;
1885;SDS011;943;51.568;6.998;2022-08-26T12:29:02;12.90;;;7.60;;
1885;SDS011;943;51.568;6.998;2022-08-26T12:32:05;11.73;;;7.50;;
1885;SDS011;943;51.568;6.998;2022-08-26T12:34:44;8.43;;;6.40;;
1885;SDS011;943;51.568;6.998;2022-08-26T12:37:14;13.73;;;7.97;;
1885;SDS011;943;51.568;6.998;2022-08-26T12:39:44;10.70;;;7.10;;
1885;SDS011;943;51.568;6.998;2022-08-26T12:44:48;11.13;;;6.53;;
1885;SDS011;943;51.568;6.998;2022-08-26T12:47:30;9.50;;;6.60;;
1885;SDS011;943;51.568;6.998;2022-08-26T12:50:20;7.97;;;6.40;;
1885;SDS011;943;51.568;6.998;2022-08-26T12:55:40;13.73;;;6.90;;
1885;SDS011;943;51.568;6.998;2022-08-26T13:08:51;8.30;;;6.17;;
1885;SDS011;943;51.568;6.998;2022-08-26T13:14:08;10.80;;;6.63;;
1885;SDS011;943;51.568;6.998;2022-08-26T13:16:49;7.33;;;6.20;;
1885;SDS011;943;51.568;6.998;2022-08-26T13:19:19;11.43;;;6.17;;
1885;SDS011;943;51.568;6.998;2022-08-26T13:21:52;19.33;;;7.03;;
1885;SDS011;943;51.568;6.998;2022-08-26T13:27:10;9.70;;;7.00;;
1885;SDS011;943;51.568;6.998;2022-08-26T13:29:40;10.53;;;7.33;;
1885;SDS011;943;51.568;6.998;2022-08-26T13:32:08;8.80;;;6.30;;
1885;SDS011;943;51.568;6.998;2022-08-26T13:34:36;11.27;;;6.83;;
1885;SDS011;943;51.568;6.998;2022-08-26T13:37:04;14.17;;;7.70;;
1885;SDS011;943;51.568;6.998;2022-08-26T13:39:32;9.23;;;6.70;;
1885;SDS011;943;51.568;6.998;2022-08-26T13:42:00;9.70;;;6.20;;
1885;SDS011;943;51.568;6.998;2022-08-26T13:44:27;9.87;;;6.07;;
1885;SDS011;943;51.568;6.998;2022-08-26T13:46:55;11.13;;;5.60;;
1885;SDS011;943;51.568;6.998;2022-08-26T13:49:23;7.40;;;5.87;;
1885;SDS011;943;51.568;6.998;2022-08-26T13:51:51;7.17;;;5.23;;
1885;SDS011;943;51.568;6.998;2022-08-26T13:54:19;14.50;;;6.13;;
1885;SDS011;943;51.568;6.998;2022-08-26T13:56:47;9.67;;;5.50;;
1885;SDS011;943;51.568;6.998;2022-08-26T13:59:15;8.80;;;5.57;;
1885;SDS011;943;51.568;6.998;2022-08-26T14:01:43;10.10;;;5.20;;
1885;SDS011;943;51.568;6.998;2022-08-26T14:04:10;8.53;;;5.53;;
1885;SDS011;943;51.568;6.998;2022-08-26T14:06:38;12.17;;;5.40;;
1885;SDS011;943;51.568;6.998;2022-08-26T14:09:07;7.90;;;4.80;;
1885;SDS011;943;51.568;6.998;2022-08-26T14:11:36;17.33;;;4.83;;
1885;SDS011;943;51.568;6.998;2022-08-26T14:14:20;7.03;;;4.23;;
1885;SDS011;943;51.568;6.998;2022-08-26T14:16:48;5.77;;;4.00;;
1885;SDS011;943;51.568;6.998;2022-08-26T14:19:25;11.37;;;4.97;;
1885;SDS011;943;51.568;6.998;2022-08-26T14:21:57;8.50;;;4.90;;
1885;SDS011;943;51.568;6.998;2022-08-26T14:24:27;9.13;;;4.40;;
1885;SDS011;943;51.568;6.998;2022-08-26T14:26:55;10.80;;;4.07;;
1885;SDS011;943;51.568;6.998;2022-08-26T14:29:22;8.20;;;4.70;;
1885;SDS011;943;51.568;6.998;2022-08-26T14:31:50;6.37;;;4.30;;
1885;SDS011;943;51.568;6.998;2022-08-26T14:34:19;8.50;;;5.10;;
1885;SDS011;943;51.568;6.998;2022-08-26T14:36:47;10.97;;;4.90;;
1885;SDS011;943;51.568;6.998;2022-08-26T14:39:15;8.17;;;4.90;;
1885;SDS011;943;51.568;6.998;2022-08-26T14:41:45;8.27;;;5.20;;
1885;SDS011;943;51.568;6.998;2022-08-26T14:44:23;7.97;;;4.73;;
1885;SDS011;943;51.568;6.998;2022-08-26T14:47:00;8.20;;;5.03;;
1885;SDS011;943;51.568;6.998;2022-08-26T14:49:31;11.67;;;4.90;;
1885;SDS011;943;51.568;6.998;2022-08-26T14:51:59;7.87;;;5.20;;
1885;SDS011;943;51.568;6.998;2022-08-26T14:54:27;7.73;;;4.67;;
1885;SDS011;943;51.568;6.998;2022-08-26T14:56:56;9.93;;;5.47;;
1885;SDS011;943;51.568;6.998;2022-08-26T14:59:45;10.20;;;5.40;;
1885;SDS011;943;51.568;6.998;2022-08-26T15:02:15;9.77;;;5.30;;
1885;SDS011;943;51.568;6.998;2022-08-26T15:04:59;12.97;;;4.80;;
1885;SDS011;943;51.568;6.998;2022-08-26T15:07:30;10.70;;;4.73;;
1885;SDS011;943;51.568;6.998;2022-08-26T15:09:58;12.77;;;5.90;;
1885;SDS011;943;51.568;6.998;2022-08-26T15:12:26;16.00;;;6.10;;
1885;SDS011;943;51.568;6.998;2022-08-26T15:14:53;9.70;;;5.60;;
1885;SDS011;943;51.568;6.998;2022-08-26T15:17:21;8.87;;;5.43;;
1885;SDS011;943;51.568;6.998;2022-08-26T15:19:49;10.63;;;4.80;;
1885;SDS011;943;51.568;6.998;2022-08-26T15:22:18;7.50;;;4.33;;
1885;SDS011;943;51.568;6.998;2022-08-26T15:24:45;9.53;;;5.87;;
1885;SDS011;943;51.568;6.998;2022-08-26T15:27:18;8.90;;;5.27;;
1885;SDS011;943;51.568;6.998;2022-08-26T15:29:46;10.17;;;5.20;;
1885;SDS011;943;51.568;6.998;2022-08-26T15:32:14;7.67;;;5.10;;
1885;SDS011;943;51.568;6.998;2022-08-26T15:34:41;11.60;;;4.73;;
1885;SDS011;943;51.568;6.998;2022-08-26T15:37:09;10.43;;;5.57;;
1885;SDS011;943;51.568;6.998;2022-08-26T15:39:37;7.13;;;4.60;;
1885;SDS011;943;51.568;6.998;2022-08-26T15:42:06;7.13;;;4.60;;
1885;SDS011;943;51.568;6.998;2022-08-26T15:44:34;8.70;;;4.50;;
1885;SDS011;943;51.568;6.998;2022-08-26T15:47:02;9.60;;;5.03;;
1885;SDS011;943;51.568;6.998;2022-08-26T15:49:29;8.10;;;4.47;;
1885;SDS011;943;51.568;6.998;2022-08-26T15:51:58;12.67;;;4.67;;
1885;SDS011;943;51.568;6.998;2022-08-26T15:54:25;6.27;;;4.60;;
1885;SDS011;943;51.568;6.998;2022-08-26T15:56:53;8.80;;;4.80;;
1885;SDS011;943;51.568;6.998;2022-08-26T15:59:20;9.23;;;5.40;;
1885;SDS011;943;51.568;6.998;2022-08-26T16:01:48;10.23;;;4.90;;
1885;SDS011;943;51.568;6.998;2022-08-26T16:04:17;6.43;;;5.30;;
1885;SDS011;943;51.568;6.998;2022-08-26T16:06:46;9.77;;;5.90;;
1885;SDS011;943;51.568;6.998;2022-08-26T16:09:17;5.67;;;4.80;;
1885;SDS011;943;51.568;6.998;2022-08-26T16:11:49;10.83;;;5.20;;
1885;SDS011;943;51.568;6.998;2022-08-26T16:14:18;6.20;;;4.80;;
1885;SDS011;943;51.568;6.998;2022-08-26T16:16:47;7.50;;;4.97;;
1885;SDS011;943;51.568;6.998;2022-08-26T16:19:16;6.07;;;4.60;;
1885;SDS011;943;51.568;6.998;2022-08-26T16:21:43;7.80;;;5.30;;
1885;SDS011;943;51.568;6.998;2022-08-26T16:24:11;7.33;;;4.63;;
1885;SDS011;943;51.568;6.998;2022-08-26T16:26:40;7.13;;;4.00;;
1885;SDS011;943;51.568;6.998;2022-08-26T16:29:12;5.57;;;3.87;;
1885;SDS011;943;51.568;6.998;2022-08-26T16:31:42;5.97;;;3.93;;
1885;SDS011;943;51.568;6.998;2022-08-26T16:34:11;6.33;;;4.00;;
1885;SDS011;943;51.568;6.998;2022-08-26T16:36:38;8.10;;;4.60;;
1885;SDS011;943;51.568;6.998;2022-08-26T16:39:06;4.93;;;3.83;;
1885;SDS011;943;51.568;6.998;2022-08-26T16:41:37;7.27;;;4.40;;
1885;SDS011;943;51.568;6.998;2022-08-26T16:44:05;7.13;;;4.13;;
1885;SDS011;943;51.568;6.998;2022-08-26T16:46:34;7.30;;;3.90;;
1885;SDS011;943;51.568;6.998;2022-08-26T16:49:02;5.90;;;4.03;;
1885;SDS011;943;51.568;6.998;2022-08-26T16:51:30;9.20;;;3.40;;
1885;SDS011;943;51.568;6.998;2022-08-26T16:54:03;15.37;;;3.40;;
1885;SDS011;943;51.568;6.998;2022-08-26T16:56:34;6.47;;;3.60;;